sensor_id;sensor_type;location;lat;lon;timestamp;temperature;humidity
3994;DHT22;2011;48.238;13.948;2023-12-22T00:01:35;5.40;99.90
3994;DHT22;2011;48.238;13.948;2023-12-22T00:04:02;5.40;99.90
3994;DHT22;2011;48.238;13.948;2023-12-22T00:06:31;5.40;99.90
3994;DHT22;2011;48.238;13.948;2023-12-22T00:08:58;5.40;99.90
3994;DHT22;2011;48.238;13.948;2023-12-22T00:11:25;5.30;99.90
3994;DHT22;2011;48.238;13.948;2023-12-22T00:13:54;5.30;99.90
3994;DHT22;2011;48.238;13.948;2023-12-22T00:16:21;5.30;99.90
3994;DHT22;2011;48.238;13.948;2023-12-22T00:18:48;5.20;99.90
3994;DHT22;2011;48.238;13.948;2023-12-22T00:21:15;5.20;99.90
3994;DHT22;2011;48.238;13.948;2023-12-22T00:23:42;5.20;99.90
3994;DHT22;2011;48.238;13.948;2023-12-22T00:26:09;5.20;99.90
3994;DHT22;2011;48.238;13.948;2023-12-22T00:28:36;5.20;99.90
3994;DHT22;2011;48.238;13.948;2023-12-22T00:31:04;5.10;99.90
3994;DHT22;2011;48.238;13.948;2023-12-22T00:33:31;5.00;99.90
3994;DHT22;2011;48.238;13.948;2023-12-22T00:35:58;4.90;99.90
3994;DHT22;2011;48.238;13.948;2023-12-22T00:38:25;4.90;99.90
3994;DHT22;2011;48.238;13.948;2023-12-22T00:40:51;4.90;99.90
3994;DHT22;2011;48.238;13.948;2023-12-22T00:43:18;4.90;99.90
3994;DHT22;2011;48.238;13.948;2023-12-22T00:45:45;4.90;99.90
3994;DHT22;2011;48.238;13.948;2023-12-22T00:48:14;4.90;99.90
3994;DHT22;2011;48.238;13.948;2023-12-22T00:50:41;4.90;99.90
3994;DHT22;2011;48.238;13.948;2023-12-22T00:53:08;4.80;99.90
3994;DHT22;2011;48.238;13.948;2023-12-22T00:55:35;4.80;99.90
3994;DHT22;2011;48.238;13.948;2023-12-22T00:58:03;4.80;99.90
3994;DHT22;2011;48.238;13.948;2023-12-22T01:00:30;4.80;99.90
3994;DHT22;2011;48.238;13.948;2023-12-22T01:02:57;4.80;99.90
3994;DHT22;2011;48.238;13.948;2023-12-22T01:05:25;4.80;99.90
3994;DHT22;2011;48.238;13.948;2023-12-22T01:07:52;4.90;99.90
3994;DHT22;2011;48.238;13.948;2023-12-22T01:10:19;4.90;99.90
3994;DHT22;2011;48.238;13.948;2023-12-22T01:12:47;5.00;99.90
3994;DHT22;2011;48.238;13.948;2023-12-22T01:15:14;5.00;99.90
3994;DHT22;2011;48.238;13.948;2023-12-22T01:17:41;5.10;99.90
3994;DHT22;2011;48.238;13.948;2023-12-22T01:20:08;5.20;99.90
3994;DHT22;2011;48.238;13.948;2023-12-22T01:22:37;5.20;99.90
3994;DHT22;2011;48.238;13.948;2023-12-22T01:25:04;5.30;99.90
3994;DHT22;2011;48.238;13.948;2023-12-22T01:27:31;5.30;99.90
3994;DHT22;2011;48.238;13.948;2023-12-22T01:29:58;5.40;99.90
3994;DHT22;2011;48.238;13.948;2023-12-22T01:32:26;5.40;99.90
3994;DHT22;2011;48.238;13.948;2023-12-22T01:34:58;5.40;99.90
3994;DHT22;2011;48.238;13.948;2023-12-22T01:37:29;5.40;99.90
3994;DHT22;2011;48.238;13.948;2023-12-22T01:39:57;5.40;99.90
3994;DHT22;2011;48.238;13.948;2023-12-22T01:42:24;5.40;99.90
3994;DHT22;2011;48.238;13.948;2023-12-22T01:44:51;5.50;99.90
3994;DHT22;2011;48.238;13.948;2023-12-22T01:47:19;5.50;99.90
3994;DHT22;2011;48.238;13.948;2023-12-22T01:49:46;5.50;99.90
3994;DHT22;2011;48.238;13.948;2023-12-22T01:52:13;5.50;99.90
3994;DHT22;2011;48.238;13.948;2023-12-22T01:54:41;5.50;99.90
3994;DHT22;2011;48.238;13.948;2023-12-22T01:57:13;5.50;99.90
3994;DHT22;2011;48.238;13.948;2023-12-22T01:59:43;5.50;99.90
3994;DHT22;2011;48.238;13.948;2023-12-22T02:02:10;5.50;99.90
3994;DHT22;2011;48.238;13.948;2023-12-22T02:04:38;5.50;99.90
3994;DHT22;2011;48.238;13.948;2023-12-22T02:07:06;5.50;99.90
3994;DHT22;2011;48.238;13.948;2023-12-22T02:09:36;5.50;99.90
3994;DHT22;2011;48.238;13.948;2023-12-22T02:12:04;5.50;99.90
3994;DHT22;2011;48.238;13.948;2023-12-22T02:14:32;5.50;99.90
3994;DHT22;2011;48.238;13.948;2023-12-22T02:17:06;5.50;99.90
3994;DHT22;2011;48.238;13.948;2023-12-22T02:19:42;5.40;99.90
3994;DHT22;2011;48.238;13.948;2023-12-22T02:22:10;5.40;99.90
3994;DHT22;2011;48.238;13.948;2023-12-22T02:24:39;5.40;99.90
3994;DHT22;2011;48.238;13.948;2023-12-22T02:27:14;5.50;99.90
3994;DHT22;2011;48.238;13.948;2023-12-22T02:29:45;5.40;99.90
3994;DHT22;2011;48.238;13.948;2023-12-22T02:32:20;5.40;99.90
3994;DHT22;2011;48.238;13.948;2023-12-22T02:34:51;5.40;99.90
3994;DHT22;2011;48.238;13.948;2023-12-22T02:37:20;5.30;99.90
3994;DHT22;2011;48.238;13.948;2023-12-22T02:39:51;5.30;99.90
3994;DHT22;2011;48.238;13.948;2023-12-22T02:42:19;5.30;99.90
3994;DHT22;2011;48.238;13.948;2023-12-22T02:44:49;5.30;99.90
3994;DHT22;2011;48.238;13.948;2023-12-22T02:47:16;5.30;99.90
3994;DHT22;2011;48.238;13.948;2023-12-22T02:49:43;5.20;99.90
3994;DHT22;2011;48.238;13.948;2023-12-22T02:52:10;5.20;99.90
3994;DHT22;2011;48.238;13.948;2023-12-22T02:54:37;5.20;99.90
3994;DHT22;2011;48.238;13.948;2023-12-22T02:57:07;5.20;99.90
3994;DHT22;2011;48.238;13.948;2023-12-22T02:59:34;5.20;99.90
3994;DHT22;2011;48.238;13.948;2023-12-22T03:02:01;5.20;99.90
3994;DHT22;2011;48.238;13.948;2023-12-22T03:04:28;5.10;99.90
3994;DHT22;2011;48.238;13.948;2023-12-22T03:06:55;5.00;99.90
3994;DHT22;2011;48.238;13.948;2023-12-22T03:09:22;5.00;99.90
3994;DHT22;2011;48.238;13.948;2023-12-22T03:11:49;4.90;99.90
3994;DHT22;2011;48.238;13.948;2023-12-22T03:14:18;4.80;99.90
3994;DHT22;2011;48.238;13.948;2023-12-22T03:16:45;4.80;99.90
3994;DHT22;2011;48.238;13.948;2023-12-22T03:19:12;4.80;99.90
3994;DHT22;2011;48.238;13.948;2023-12-22T03:21:39;4.80;99.90
3994;DHT22;2011;48.238;13.948;2023-12-22T03:24:07;4.70;99.90
3994;DHT22;2011;48.238;13.948;2023-12-22T03:26:34;4.70;99.90
3994;DHT22;2011;48.238;13.948;2023-12-22T03:29:01;4.60;99.90
3994;DHT22;2011;48.238;13.948;2023-12-22T03:31:29;4.60;99.90
3994;DHT22;2011;48.238;13.948;2023-12-22T03:33:56;4.50;99.90
3994;DHT22;2011;48.238;13.948;2023-12-22T03:36:23;4.50;99.90
3994;DHT22;2011;48.238;13.948;2023-12-22T03:38:50;4.50;99.90
3994;DHT22;2011;48.238;13.948;2023-12-22T03:41:17;4.50;99.90
3994;DHT22;2011;48.238;13.948;2023-12-22T03:43:44;4.50;99.90
3994;DHT22;2011;48.238;13.948;2023-12-22T03:46:11;4.50;99.90
3994;DHT22;2011;48.238;13.948;2023-12-22T03:48:40;4.40;99.90
3994;DHT22;2011;48.238;13.948;2023-12-22T03:51:07;4.40;99.90
3994;DHT22;2011;48.238;13.948;2023-12-22T03:53:36;4.40;99.90
3994;DHT22;2011;48.238;13.948;2023-12-22T03:56:03;4.40;99.90
3994;DHT22;2011;48.238;13.948;2023-12-22T03:58:30;4.40;99.90
3994;DHT22;2011;48.238;13.948;2023-12-22T04:00:57;4.40;99.90
3994;DHT22;2011;48.238;13.948;2023-12-22T04:03:24;4.40;99.90
3994;DHT22;2011;48.238;13.948;2023-12-22T04:05:53;4.40;99.90
3994;DHT22;2011;48.238;13.948;2023-12-22T04:08:20;4.40;99.90
3994;DHT22;2011;48.238;13.948;2023-12-22T04:10:47;4.40;99.90
3994;DHT22;2011;48.238;13.948;2023-12-22T04:13:15;4.30;99.90
3994;DHT22;2011;48.238;13.948;2023-12-22T04:15:42;4.40;99.90
3994;DHT22;2011;48.238;13.948;2023-12-22T04:18:09;4.30;99.90
3994;DHT22;2011;48.238;13.948;2023-12-22T04:20:36;4.30;99.90
3994;DHT22;2011;48.238;13.948;2023-12-22T04:23:05;4.30;99.90
3994;DHT22;2011;48.238;13.948;2023-12-22T04:25:32;4.30;99.90
3994;DHT22;2011;48.238;13.948;2023-12-22T04:27:59;4.20;99.90
3994;DHT22;2011;48.238;13.948;2023-12-22T04:30:26;4.20;99.90
3994;DHT22;2011;48.238;13.948;2023-12-22T04:32:53;4.30;99.90
3994;DHT22;2011;48.238;13.948;2023-12-22T04:35:21;4.20;99.90
3994;DHT22;2011;48.238;13.948;2023-12-22T04:37:48;4.20;99.90
3994;DHT22;2011;48.238;13.948;2023-12-22T04:40:17;4.30;99.90
3994;DHT22;2011;48.238;13.948;2023-12-22T04:42:45;4.20;99.90
3994;DHT22;2011;48.238;13.948;2023-12-22T04:45:12;4.30;99.90
3994;DHT22;2011;48.238;13.948;2023-12-22T04:47:39;4.20;99.90
3994;DHT22;2011;48.238;13.948;2023-12-22T04:50:06;4.20;99.90
3994;DHT22;2011;48.238;13.948;2023-12-22T04:52:33;4.10;99.90
3994;DHT22;2011;48.238;13.948;2023-12-22T04:55:01;4.10;99.90
3994;DHT22;2011;48.238;13.948;2023-12-22T04:57:29;4.10;99.90
3994;DHT22;2011;48.238;13.948;2023-12-22T04:59:56;4.00;99.90
3994;DHT22;2011;48.238;13.948;2023-12-22T05:02:23;4.00;99.90
3994;DHT22;2011;48.238;13.948;2023-12-22T05:04:50;3.90;99.90
3994;DHT22;2011;48.238;13.948;2023-12-22T05:07:17;3.90;99.90
3994;DHT22;2011;48.238;13.948;2023-12-22T05:09:44;3.90;99.90
3994;DHT22;2011;48.238;13.948;2023-12-22T05:12:11;3.80;99.90
3994;DHT22;2011;48.238;13.948;2023-12-22T05:14:39;3.80;99.90
3994;DHT22;2011;48.238;13.948;2023-12-22T05:17:06;3.80;99.90
3994;DHT22;2011;48.238;13.948;2023-12-22T05:19:33;3.80;99.90
3994;DHT22;2011;48.238;13.948;2023-12-22T05:22:00;3.70;99.90
3994;DHT22;2011;48.238;13.948;2023-12-22T05:24:27;3.70;99.90
3994;DHT22;2011;48.238;13.948;2023-12-22T05:26:54;3.70;99.90
3994;DHT22;2011;48.238;13.948;2023-12-22T05:29:21;3.70;99.90
3994;DHT22;2011;48.238;13.948;2023-12-22T05:31:49;3.70;99.90
3994;DHT22;2011;48.238;13.948;2023-12-22T05:34:16;3.60;99.90
3994;DHT22;2011;48.238;13.948;2023-12-22T05:36:43;3.60;99.90
3994;DHT22;2011;48.238;13.948;2023-12-22T05:39:10;3.60;99.90
3994;DHT22;2011;48.238;13.948;2023-12-22T05:41:38;3.50;99.90
3994;DHT22;2011;48.238;13.948;2023-12-22T05:44:05;3.50;99.90
3994;DHT22;2011;48.238;13.948;2023-12-22T05:46:35;3.50;99.90
3994;DHT22;2011;48.238;13.948;2023-12-22T05:49:04;3.50;99.90
3994;DHT22;2011;48.238;13.948;2023-12-22T05:51:36;3.50;99.90
3994;DHT22;2011;48.238;13.948;2023-12-22T05:54:04;3.50;99.90
3994;DHT22;2011;48.238;13.948;2023-12-22T05:56:31;3.50;99.90
3994;DHT22;2011;48.238;13.948;2023-12-22T05:58:59;3.50;99.90
3994;DHT22;2011;48.238;13.948;2023-12-22T06:01:26;3.60;99.90
3994;DHT22;2011;48.238;13.948;2023-12-22T06:03:53;3.60;99.90
3994;DHT22;2011;48.238;13.948;2023-12-22T06:06:22;3.60;99.90
3994;DHT22;2011;48.238;13.948;2023-12-22T06:08:48;3.60;99.90
3994;DHT22;2011;48.238;13.948;2023-12-22T06:11:15;3.60;99.90
3994;DHT22;2011;48.238;13.948;2023-12-22T06:13:42;3.60;99.90
3994;DHT22;2011;48.238;13.948;2023-12-22T06:16:12;3.60;99.90
3994;DHT22;2011;48.238;13.948;2023-12-22T06:18:39;3.60;99.90
3994;DHT22;2011;48.238;13.948;2023-12-22T06:21:07;3.60;99.90
3994;DHT22;2011;48.238;13.948;2023-12-22T06:23:35;3.60;99.90
3994;DHT22;2011;48.238;13.948;2023-12-22T06:26:08;3.60;99.90
3994;DHT22;2011;48.238;13.948;2023-12-22T06:28:35;3.60;99.90
3994;DHT22;2011;48.238;13.948;2023-12-22T06:31:04;3.50;99.90
3994;DHT22;2011;48.238;13.948;2023-12-22T06:33:31;3.40;99.90
3994;DHT22;2011;48.238;13.948;2023-12-22T06:35:58;3.40;99.90
3994;DHT22;2011;48.238;13.948;2023-12-22T06:38:25;3.40;99.90
3994;DHT22;2011;48.238;13.948;2023-12-22T06:40:53;3.40;99.90
3994;DHT22;2011;48.238;13.948;2023-12-22T06:43:21;3.40;99.90
3994;DHT22;2011;48.238;13.948;2023-12-22T06:45:48;3.40;99.90
3994;DHT22;2011;48.238;13.948;2023-12-22T06:48:15;3.50;99.90
3994;DHT22;2011;48.238;13.948;2023-12-22T06:50:42;3.50;99.90
3994;DHT22;2011;48.238;13.948;2023-12-22T06:53:10;3.50;99.90
3994;DHT22;2011;48.238;13.948;2023-12-22T06:55:38;3.50;99.90
3994;DHT22;2011;48.238;13.948;2023-12-22T06:58:06;3.50;99.90
3994;DHT22;2011;48.238;13.948;2023-12-22T07:00:35;3.50;99.90
3994;DHT22;2011;48.238;13.948;2023-12-22T07:03:03;3.50;99.90
3994;DHT22;2011;48.238;13.948;2023-12-22T07:05:33;3.50;99.90
3994;DHT22;2011;48.238;13.948;2023-12-22T07:08:06;3.50;99.90
3994;DHT22;2011;48.238;13.948;2023-12-22T07:10:33;3.50;99.90
3994;DHT22;2011;48.238;13.948;2023-12-22T07:13:00;3.50;99.90
3994;DHT22;2011;48.238;13.948;2023-12-22T07:15:28;3.50;99.90
3994;DHT22;2011;48.238;13.948;2023-12-22T07:17:55;3.50;99.90
3994;DHT22;2011;48.238;13.948;2023-12-22T07:20:22;3.60;99.90
3994;DHT22;2011;48.238;13.948;2023-12-22T07:22:49;3.60;99.90
3994;DHT22;2011;48.238;13.948;2023-12-22T07:25:17;3.60;99.90
3994;DHT22;2011;48.238;13.948;2023-12-22T07:27:45;3.70;99.90
3994;DHT22;2011;48.238;13.948;2023-12-22T07:30:13;3.60;99.90
3994;DHT22;2011;48.238;13.948;2023-12-22T07:32:44;3.60;99.90
3994;DHT22;2011;48.238;13.948;2023-12-22T07:35:13;3.70;99.90
3994;DHT22;2011;48.238;13.948;2023-12-22T07:37:40;3.70;99.90
3994;DHT22;2011;48.238;13.948;2023-12-22T07:40:09;3.70;99.90
3994;DHT22;2011;48.238;13.948;2023-12-22T07:42:36;3.70;99.90
3994;DHT22;2011;48.238;13.948;2023-12-22T07:45:04;3.70;99.90
3994;DHT22;2011;48.238;13.948;2023-12-22T07:47:32;3.80;99.90
3994;DHT22;2011;48.238;13.948;2023-12-22T07:50:00;3.80;99.90
3994;DHT22;2011;48.238;13.948;2023-12-22T07:52:27;3.80;99.90
3994;DHT22;2011;48.238;13.948;2023-12-22T07:54:54;3.80;99.90
3994;DHT22;2011;48.238;13.948;2023-12-22T07:57:21;3.80;99.90
3994;DHT22;2011;48.238;13.948;2023-12-22T07:59:49;3.80;99.90
3994;DHT22;2011;48.238;13.948;2023-12-22T08:02:15;3.80;99.90
3994;DHT22;2011;48.238;13.948;2023-12-22T08:04:42;3.80;99.90
3994;DHT22;2011;48.238;13.948;2023-12-22T08:07:09;3.80;99.90
3994;DHT22;2011;48.238;13.948;2023-12-22T08:09:36;3.80;99.90
3994;DHT22;2011;48.238;13.948;2023-12-22T08:12:04;3.80;99.90
3994;DHT22;2011;48.238;13.948;2023-12-22T08:14:31;3.80;99.90
3994;DHT22;2011;48.238;13.948;2023-12-22T08:16:58;3.90;99.90
3994;DHT22;2011;48.238;13.948;2023-12-22T08:19:25;3.80;99.90
3994;DHT22;2011;48.238;13.948;2023-12-22T08:21:52;3.90;99.90
3994;DHT22;2011;48.238;13.948;2023-12-22T08:24:21;3.90;99.90
3994;DHT22;2011;48.238;13.948;2023-12-22T08:26:48;3.90;99.90
3994;DHT22;2011;48.238;13.948;2023-12-22T08:29:15;3.90;99.90
3994;DHT22;2011;48.238;13.948;2023-12-22T08:31:42;3.90;99.90
3994;DHT22;2011;48.238;13.948;2023-12-22T08:34:10;3.90;99.90
3994;DHT22;2011;48.238;13.948;2023-12-22T08:36:37;3.90;99.90
3994;DHT22;2011;48.238;13.948;2023-12-22T08:39:04;3.90;99.90
3994;DHT22;2011;48.238;13.948;2023-12-22T08:41:33;3.90;99.90
3994;DHT22;2011;48.238;13.948;2023-12-22T08:44:02;4.00;99.90
3994;DHT22;2011;48.238;13.948;2023-12-22T08:46:30;4.00;99.90
3994;DHT22;2011;48.238;13.948;2023-12-22T08:48:57;4.00;99.90
3994;DHT22;2011;48.238;13.948;2023-12-22T08:51:25;4.00;99.90
3994;DHT22;2011;48.238;13.948;2023-12-22T08:53:53;4.00;99.90
3994;DHT22;2011;48.238;13.948;2023-12-22T08:56:21;4.00;99.90
3994;DHT22;2011;48.238;13.948;2023-12-22T08:58:51;4.00;99.90
3994;DHT22;2011;48.238;13.948;2023-12-22T09:01:21;4.00;99.90
3994;DHT22;2011;48.238;13.948;2023-12-22T09:03:49;4.10;99.90
3994;DHT22;2011;48.238;13.948;2023-12-22T09:06:16;4.10;99.90
3994;DHT22;2011;48.238;13.948;2023-12-22T09:08:43;4.10;99.90
3994;DHT22;2011;48.238;13.948;2023-12-22T09:11:12;4.10;99.90
3994;DHT22;2011;48.238;13.948;2023-12-22T09:13:40;4.10;99.90
3994;DHT22;2011;48.238;13.948;2023-12-22T09:16:09;4.10;99.90
3994;DHT22;2011;48.238;13.948;2023-12-22T09:18:37;4.10;99.90
3994;DHT22;2011;48.238;13.948;2023-12-22T09:21:04;4.10;99.90
3994;DHT22;2011;48.238;13.948;2023-12-22T09:23:31;4.10;99.90
3994;DHT22;2011;48.238;13.948;2023-12-22T09:25:58;4.10;99.90
3994;DHT22;2011;48.238;13.948;2023-12-22T09:28:25;4.20;99.90
3994;DHT22;2011;48.238;13.948;2023-12-22T09:30:53;4.20;99.90
3994;DHT22;2011;48.238;13.948;2023-12-22T09:33:21;4.20;99.90
3994;DHT22;2011;48.238;13.948;2023-12-22T09:35:49;4.30;99.90
3994;DHT22;2011;48.238;13.948;2023-12-22T09:38:16;4.30;99.90
3994;DHT22;2011;48.238;13.948;2023-12-22T09:40:44;4.20;99.90
3994;DHT22;2011;48.238;13.948;2023-12-22T09:43:14;4.30;99.90
3994;DHT22;2011;48.238;13.948;2023-12-22T09:45:44;4.20;99.90
3994;DHT22;2011;48.238;13.948;2023-12-22T09:48:13;4.30;99.90
3994;DHT22;2011;48.238;13.948;2023-12-22T09:50:44;4.20;99.90
3994;DHT22;2011;48.238;13.948;2023-12-22T09:53:14;4.30;99.90
3994;DHT22;2011;48.238;13.948;2023-12-22T09:55:44;4.30;99.90
3994;DHT22;2011;48.238;13.948;2023-12-22T09:58:12;4.40;99.90
3994;DHT22;2011;48.238;13.948;2023-12-22T10:00:41;4.40;99.90
3994;DHT22;2011;48.238;13.948;2023-12-22T10:03:10;4.50;99.90
3994;DHT22;2011;48.238;13.948;2023-12-22T10:05:38;4.50;99.90
3994;DHT22;2011;48.238;13.948;2023-12-22T10:08:07;4.50;99.90
3994;DHT22;2011;48.238;13.948;2023-12-22T10:10:38;4.60;99.90
3994;DHT22;2011;48.238;13.948;2023-12-22T10:13:06;4.60;99.90
3994;DHT22;2011;48.238;13.948;2023-12-22T10:15:37;4.70;99.90
3994;DHT22;2011;48.238;13.948;2023-12-22T10:18:07;4.70;99.90
3994;DHT22;2011;48.238;13.948;2023-12-22T10:20:35;4.80;99.90
3994;DHT22;2011;48.238;13.948;2023-12-22T10:23:03;4.90;99.90
3994;DHT22;2011;48.238;13.948;2023-12-22T10:25:32;4.90;99.90
3994;DHT22;2011;48.238;13.948;2023-12-22T10:27:59;4.90;99.90
3994;DHT22;2011;48.238;13.948;2023-12-22T10:30:28;5.00;99.90
3994;DHT22;2011;48.238;13.948;2023-12-22T10:32:55;5.00;99.90
3994;DHT22;2011;48.238;13.948;2023-12-22T10:35:23;5.10;99.90
3994;DHT22;2011;48.238;13.948;2023-12-22T10:37:50;5.10;99.90
3994;DHT22;2011;48.238;13.948;2023-12-22T10:40:19;5.10;99.90
3994;DHT22;2011;48.238;13.948;2023-12-22T10:42:48;5.20;99.90
3994;DHT22;2011;48.238;13.948;2023-12-22T10:45:18;5.20;99.90
3994;DHT22;2011;48.238;13.948;2023-12-22T10:47:45;5.20;99.90
3994;DHT22;2011;48.238;13.948;2023-12-22T10:50:19;5.20;99.90
3994;DHT22;2011;48.238;13.948;2023-12-22T10:52:49;5.20;99.90
3994;DHT22;2011;48.238;13.948;2023-12-22T10:55:17;5.20;99.90
3994;DHT22;2011;48.238;13.948;2023-12-22T10:57:46;5.20;99.90
3994;DHT22;2011;48.238;13.948;2023-12-22T11:00:17;5.20;99.90
3994;DHT22;2011;48.238;13.948;2023-12-22T11:02:48;5.20;99.90
3994;DHT22;2011;48.238;13.948;2023-12-22T11:05:15;5.30;99.90
3994;DHT22;2011;48.238;13.948;2023-12-22T11:07:48;5.30;99.90
3994;DHT22;2011;48.238;13.948;2023-12-22T11:10:19;5.30;99.90
3994;DHT22;2011;48.238;13.948;2023-12-22T11:12:48;5.30;99.90
3994;DHT22;2011;48.238;13.948;2023-12-22T11:15:18;5.40;99.90
3994;DHT22;2011;48.238;13.948;2023-12-22T11:17:46;5.40;99.90
3994;DHT22;2011;48.238;13.948;2023-12-22T11:20:17;5.40;99.90
3994;DHT22;2011;48.238;13.948;2023-12-22T11:22:45;5.40;99.90
3994;DHT22;2011;48.238;13.948;2023-12-22T11:25:14;5.50;99.90
3994;DHT22;2011;48.238;13.948;2023-12-22T11:27:43;5.50;99.90
3994;DHT22;2011;48.238;13.948;2023-12-22T11:30:12;5.60;99.90
3994;DHT22;2011;48.238;13.948;2023-12-22T11:32:44;5.60;99.90
3994;DHT22;2011;48.238;13.948;2023-12-22T11:35:12;5.60;99.90
3994;DHT22;2011;48.238;13.948;2023-12-22T11:37:41;5.60;99.90
3994;DHT22;2011;48.238;13.948;2023-12-22T11:40:10;5.70;99.90
3994;DHT22;2011;48.238;13.948;2023-12-22T11:42:40;5.70;99.90
3994;DHT22;2011;48.238;13.948;2023-12-22T11:45:10;5.70;99.90
3994;DHT22;2011;48.238;13.948;2023-12-22T11:47:42;5.70;99.90
3994;DHT22;2011;48.238;13.948;2023-12-22T11:50:10;5.70;99.90
3994;DHT22;2011;48.238;13.948;2023-12-22T11:52:38;5.70;99.90
3994;DHT22;2011;48.238;13.948;2023-12-22T11:55:07;5.70;99.90
3994;DHT22;2011;48.238;13.948;2023-12-22T11:57:36;5.70;99.90
3994;DHT22;2011;48.238;13.948;2023-12-22T12:00:07;5.70;99.90
3994;DHT22;2011;48.238;13.948;2023-12-22T12:02:37;5.60;99.90
3994;DHT22;2011;48.238;13.948;2023-12-22T12:05:09;5.50;99.90
3994;DHT22;2011;48.238;13.948;2023-12-22T12:07:43;5.40;99.90
3994;DHT22;2011;48.238;13.948;2023-12-22T12:10:50;5.50;99.90
3994;DHT22;2011;48.238;13.948;2023-12-22T12:13:22;5.30;99.90
3994;DHT22;2011;48.238;13.948;2023-12-22T12:15:50;5.20;99.90
3994;DHT22;2011;48.238;13.948;2023-12-22T12:18:21;5.00;99.90
3994;DHT22;2011;48.238;13.948;2023-12-22T12:20:50;4.90;99.90
3994;DHT22;2011;48.238;13.948;2023-12-22T12:23:17;4.80;99.90
3994;DHT22;2011;48.238;13.948;2023-12-22T12:25:44;4.70;99.90
3994;DHT22;2011;48.238;13.948;2023-12-22T12:28:11;4.60;99.90
3994;DHT22;2011;48.238;13.948;2023-12-22T12:30:40;4.20;99.90
3994;DHT22;2011;48.238;13.948;2023-12-22T12:33:08;3.90;99.90
3994;DHT22;2011;48.238;13.948;2023-12-22T12:35:35;3.60;99.90
3994;DHT22;2011;48.238;13.948;2023-12-22T12:38:04;3.40;99.90
3994;DHT22;2011;48.238;13.948;2023-12-22T12:40:31;3.20;99.90
3994;DHT22;2011;48.238;13.948;2023-12-22T12:43:01;3.10;99.90
3994;DHT22;2011;48.238;13.948;2023-12-22T12:45:28;3.00;99.90
3994;DHT22;2011;48.238;13.948;2023-12-22T12:47:56;3.00;99.90
3994;DHT22;2011;48.238;13.948;2023-12-22T12:50:23;2.90;99.90
3994;DHT22;2011;48.238;13.948;2023-12-22T12:52:50;2.90;99.90
3994;DHT22;2011;48.238;13.948;2023-12-22T12:55:21;2.80;99.90
3994;DHT22;2011;48.238;13.948;2023-12-22T12:57:48;2.80;99.90
3994;DHT22;2011;48.238;13.948;2023-12-22T13:00:17;2.70;99.90
3994;DHT22;2011;48.238;13.948;2023-12-22T13:02:50;2.70;99.90
3994;DHT22;2011;48.238;13.948;2023-12-22T13:05:21;2.60;99.90
3994;DHT22;2011;48.238;13.948;2023-12-22T13:07:48;2.70;99.90
3994;DHT22;2011;48.238;13.948;2023-12-22T13:10:22;2.70;99.90
3994;DHT22;2011;48.238;13.948;2023-12-22T13:12:50;2.80;99.90
3994;DHT22;2011;48.238;13.948;2023-12-22T13:15:20;2.80;99.90
3994;DHT22;2011;48.238;13.948;2023-12-22T13:17:47;3.00;99.90
3994;DHT22;2011;48.238;13.948;2023-12-22T13:20:14;2.80;99.90
3994;DHT22;2011;48.238;13.948;2023-12-22T13:22:41;2.80;99.90
3994;DHT22;2011;48.238;13.948;2023-12-22T13:25:09;2.70;99.90
3994;DHT22;2011;48.238;13.948;2023-12-22T13:27:48;2.70;99.90
3994;DHT22;2011;48.238;13.948;2023-12-22T13:30:15;2.80;99.90
3994;DHT22;2011;48.238;13.948;2023-12-22T13:32:58;2.80;99.90
3994;DHT22;2011;48.238;13.948;2023-12-22T13:35:25;2.90;99.90
3994;DHT22;2011;48.238;13.948;2023-12-22T13:37:54;2.90;99.90
3994;DHT22;2011;48.238;13.948;2023-12-22T13:40:22;2.90;99.90
3994;DHT22;2011;48.238;13.948;2023-12-22T13:42:55;2.90;99.90
3994;DHT22;2011;48.238;13.948;2023-12-22T13:45:23;2.90;99.90
3994;DHT22;2011;48.238;13.948;2023-12-22T13:47:49;2.90;99.90
3994;DHT22;2011;48.238;13.948;2023-12-22T13:50:17;2.90;99.90
3994;DHT22;2011;48.238;13.948;2023-12-22T13:52:44;2.80;99.90
3994;DHT22;2011;48.238;13.948;2023-12-22T13:55:12;2.80;99.90
3994;DHT22;2011;48.238;13.948;2023-12-22T13:57:39;2.80;99.90
3994;DHT22;2011;48.238;13.948;2023-12-22T14:00:26;2.80;99.90
3994;DHT22;2011;48.238;13.948;2023-12-22T14:02:53;2.80;99.90
3994;DHT22;2011;48.238;13.948;2023-12-22T14:05:20;2.90;99.90
3994;DHT22;2011;48.238;13.948;2023-12-22T14:07:47;2.90;99.90
3994;DHT22;2011;48.238;13.948;2023-12-22T14:10:15;2.90;99.90
3994;DHT22;2011;48.238;13.948;2023-12-22T14:12:42;2.90;99.90
3994;DHT22;2011;48.238;13.948;2023-12-22T14:15:09;2.90;99.90
3994;DHT22;2011;48.238;13.948;2023-12-22T14:17:38;3.00;99.90
3994;DHT22;2011;48.238;13.948;2023-12-22T14:20:08;3.00;99.90
3994;DHT22;2011;48.238;13.948;2023-12-22T14:22:36;3.00;99.90
3994;DHT22;2011;48.238;13.948;2023-12-22T14:25:04;3.00;99.90
3994;DHT22;2011;48.238;13.948;2023-12-22T14:27:31;3.10;99.90
3994;DHT22;2011;48.238;13.948;2023-12-22T14:29:58;3.20;99.90
3994;DHT22;2011;48.238;13.948;2023-12-22T14:32:25;3.20;99.90
3994;DHT22;2011;48.238;13.948;2023-12-22T14:34:54;3.30;99.90
3994;DHT22;2011;48.238;13.948;2023-12-22T14:37:21;3.30;99.90
3994;DHT22;2011;48.238;13.948;2023-12-22T14:39:48;3.40;99.90
3994;DHT22;2011;48.238;13.948;2023-12-22T14:42:15;3.40;99.90
3994;DHT22;2011;48.238;13.948;2023-12-22T14:44:42;3.40;99.90
3994;DHT22;2011;48.238;13.948;2023-12-22T14:47:09;3.50;99.90
3994;DHT22;2011;48.238;13.948;2023-12-22T14:49:36;3.50;99.90
3994;DHT22;2011;48.238;13.948;2023-12-22T14:52:04;3.50;99.90
3994;DHT22;2011;48.238;13.948;2023-12-22T14:54:31;3.50;99.90
3994;DHT22;2011;48.238;13.948;2023-12-22T14:56:58;3.50;99.90
3994;DHT22;2011;48.238;13.948;2023-12-22T14:59:26;3.50;99.90
3994;DHT22;2011;48.238;13.948;2023-12-22T15:01:53;3.50;99.90
3994;DHT22;2011;48.238;13.948;2023-12-22T15:04:19;3.60;99.90
3994;DHT22;2011;48.238;13.948;2023-12-22T15:06:46;3.80;99.90
3994;DHT22;2011;48.238;13.948;2023-12-22T15:09:15;4.30;99.90
3994;DHT22;2011;48.238;13.948;2023-12-22T15:11:43;4.70;99.90
3994;DHT22;2011;48.238;13.948;2023-12-22T15:14:10;5.00;99.90
3994;DHT22;2011;48.238;13.948;2023-12-22T15:16:40;5.20;99.90
3994;DHT22;2011;48.238;13.948;2023-12-22T15:19:10;5.30;99.90
3994;DHT22;2011;48.238;13.948;2023-12-22T15:21:37;5.50;99.90
3994;DHT22;2011;48.238;13.948;2023-12-22T15:24:05;5.70;99.90
3994;DHT22;2011;48.238;13.948;2023-12-22T15:26:34;5.70;99.90
3994;DHT22;2011;48.238;13.948;2023-12-22T15:29:02;5.70;99.90
3994;DHT22;2011;48.238;13.948;2023-12-22T15:31:29;5.80;99.90
3994;DHT22;2011;48.238;13.948;2023-12-22T15:33:57;5.80;99.90
3994;DHT22;2011;48.238;13.948;2023-12-22T15:36:24;5.90;99.90
3994;DHT22;2011;48.238;13.948;2023-12-22T15:38:51;5.90;99.90
3994;DHT22;2011;48.238;13.948;2023-12-22T15:41:18;5.90;99.90
3994;DHT22;2011;48.238;13.948;2023-12-22T15:43:46;5.90;99.90
3994;DHT22;2011;48.238;13.948;2023-12-22T15:46:14;5.90;99.90
3994;DHT22;2011;48.238;13.948;2023-12-22T15:48:41;5.90;99.90
3994;DHT22;2011;48.238;13.948;2023-12-22T15:51:09;5.90;99.90
3994;DHT22;2011;48.238;13.948;2023-12-22T15:53:37;6.00;99.90
3994;DHT22;2011;48.238;13.948;2023-12-22T15:56:04;6.00;99.90
3994;DHT22;2011;48.238;13.948;2023-12-22T15:58:32;6.00;99.90
3994;DHT22;2011;48.238;13.948;2023-12-22T16:01:02;5.90;99.90
3994;DHT22;2011;48.238;13.948;2023-12-22T16:03:29;5.90;99.90
3994;DHT22;2011;48.238;13.948;2023-12-22T16:05:56;5.90;99.90
3994;DHT22;2011;48.238;13.948;2023-12-22T16:08:23;5.90;99.90